Hc Nadja Maria — V2AV4 — position and weather

sailwx.info

Track history (hours):
 
Tides and Currents Weather Stations Pressure Air Temp Water Temp Dewpoint Dewpoint Depression Visibility Wind Speed Wind Dir Waves Ship Positions

Hc Nadja Maria

Last reported at 2016-Feb-08 20:33 UTC. Time now 2016-Feb-08 21:21 UTC.
Position N 50°27' W 003°25'.

; draft 8.2 m.

Type: Ship. MMSI: 304204000.

Date/timePositionNaut miles runAvg speedWind from/ knotsBaromVisibWave heightAir tempDewpointWater temp
2016-Feb-08 20:33N 50°27' W 003°25'0 0.0
2016-Feb-08 19:33N 50°27' W 003°25'0 0.0
2016-Feb-08 18:33N 50°27' W 003°25'0 0.0
2016-Feb-08 17:33N 50°27' W 003°25'0 0.0
2016-Feb-08 16:33N 50°27' W 003°25'0 0.0
2016-Feb-08 15:33N 50°27' W 003°25'0 0.0
2016-Feb-08 14:33N 50°27' W 003°25'0 0.1
2016-Feb-08 13:33N 50°27' W 003°25'0 0.0
2016-Feb-08 12:33N 50°27' W 003°25'0 0.0
2016-Feb-08 11:33N 50°27' W 003°25'0 0.0
2016-Feb-08 10:33N 50°27' W 003°25'0 0.0
2016-Feb-08 09:33N 50°27' W 003°25'0 0.0
2016-Feb-08 08:33N 50°27' W 003°25'0 0.0
2016-Feb-08 07:33N 50°27' W 003°25'0 0.0
2016-Feb-08 06:33N 50°27' W 003°25'0 0.0
2016-Feb-08 05:33N 50°27' W 003°25'0 0.0
2016-Feb-08 04:33N 50°27' W 003°25'0 0.0
2016-Feb-08 03:33N 50°27' W 003°25'0 0.0
2016-Feb-08 02:33N 50°27' W 003°25'0 0.0
2016-Feb-08 01:33N 50°27' W 003°25'0 0.0
2016-Feb-08 00:33N 50°27' W 003°25'0 0.1
2016-Feb-07 23:33N 50°27' W 003°25'0 0.0
2016-Feb-07 22:33N 50°27' W 003°25'0 0.0
2016-Feb-07 21:33N 50°27' W 003°25'0 0.1
2016-Feb-07 20:33N 50°27' W 003°25'0 0.0
2016-Feb-07 19:33N 50°27' W 003°25'0 0.0
2016-Feb-07 18:33N 50°27' W 003°25'0 0.0
2016-Feb-07 17:33N 50°27' W 003°25'3 3.1
2016-Feb-07 16:33N 50°27' W 003°20'9 8.8
2016-Feb-07 15:33N 50°25' W 003°06'122 8.2
2016-Feb-07 00:33N 50°33' E 000°05'10 8.6
2016-Feb-06 23:23N 50°36' E 000°20'32 7.6
2016-Feb-06 19:08N 50°52' E 001°04'610.3
2016-Feb-06 18:33N 50°56' E 001°12'1111.3
2016-Feb-06 17:33N 51°03' E 001°25'1111.4
2016-Feb-06 16:33N 51°10' E 001°39'1010.0
2016-Feb-06 15:34N 51°19' E 001°48'9 9.1
2016-Feb-06 14:33N 51°27' E 001°54'9 8.7
2016-Feb-06 13:33N 51°33' E 002°04'8010.0
2016-Feb-06 05:33N 52°28' E 003°39'1010.1
2016-Feb-06 04:32N 52°31' E 003°55'9 9.4
2016-Feb-06 03:33N 52°32' E 004°10'7 7.5
2016-Feb-06 02:33N 52°30' E 004°22'8 8.1
2016-Feb-06 01:33N 52°28' E 004°35'0 0.1
2016-Feb-06 00:31N 52°28' E 004°35'0 0.0
2016-Feb-05 23:31N 52°28' E 004°35'0 0.0
2016-Feb-05 22:31N 52°28' E 004°35'0 0.0
2016-Feb-05 21:31N 52°28' E 004°35'0 0.0
2016-Feb-05 20:31N 52°28' E 004°35'0 0.0
2016-Feb-05 19:31N 52°28' E 004°35'0 0.0
2016-Feb-05 18:31N 52°28' E 004°35'0 0.0
2016-Feb-05 17:31N 52°28' E 004°35'0 0.0
2016-Feb-05 16:31N 52°28' E 004°35'0 0.0
2016-Feb-05 15:31N 52°28' E 004°35'0 0.0
2016-Feb-05 14:31N 52°28' E 004°35'0 0.0
2016-Feb-05 13:31N 52°28' E 004°35'0 0.0
2016-Feb-05 12:31N 52°28' E 004°35'0 0.0
2016-Feb-05 11:31N 52°28' E 004°35'0 0.0
2016-Feb-05 10:31N 52°28' E 004°35'0 0.0
2016-Feb-05 09:31N 52°28' E 004°35'0 0.0
2016-Feb-05 08:31N 52°28' E 004°35'0 0.0
2016-Feb-05 07:31N 52°28' E 004°35'0 0.0
2016-Feb-05 06:31N 52°28' E 004°35'0 0.0
2016-Feb-05 05:31N 52°28' E 004°35'0 0.0
2016-Feb-05 04:31N 52°28' E 004°35'0 0.0
2016-Feb-05 03:31N 52°28' E 004°35'0 0.0
2016-Feb-05 02:31N 52°28' E 004°35'0 0.0
2016-Feb-05 01:31N 52°28' E 004°35'0 0.0
2016-Feb-05 00:31N 52°28' E 004°35'0 0.0
2016-Feb-04 23:31N 52°28' E 004°35'0 0.0
2016-Feb-04 22:31N 52°28' E 004°35'0 0.0
2016-Feb-04 21:31N 52°28' E 004°35'0 0.0
2016-Feb-04 20:31N 52°28' E 004°35'0 0.0
2016-Feb-04 19:31N 52°28' E 004°35'0 0.0
2016-Feb-04 18:31N 52°28' E 004°35'0 0.0
2016-Feb-04 17:31N 52°28' E 004°35'0 0.0
2016-Feb-04 15:31N 52°28' E 004°35'0 0.0
2016-Feb-04 14:28N 52°28' E 004°35'0 0.0
2016-Feb-04 13:31N 52°28' E 004°35'0 0.0
2016-Feb-04 12:31N 52°28' E 004°35'0 0.0
2016-Feb-04 11:31N 52°28' E 004°35'0 0.0
2016-Feb-04 10:31N 52°28' E 004°35'0 0.0
2016-Feb-04 09:28N 52°28' E 004°35'0 0.0
2016-Feb-04 08:31N 52°28' E 004°35'0 0.0
2016-Feb-04 07:31N 52°28' E 004°35'0 0.0
2016-Feb-04 06:31N 52°28' E 004°35'0 0.0
2016-Feb-04 05:31N 52°28' E 004°35'0 0.0
2016-Feb-04 04:31N 52°28' E 004°35'0 0.0
2016-Feb-04 03:31N 52°28' E 004°35'0 0.0
2016-Feb-04 02:31N 52°28' E 004°35'0 0.0
2016-Feb-04 01:31N 52°28' E 004°35'0 0.0
2016-Feb-04 00:31N 52°28' E 004°35'0 0.0
2016-Feb-03 23:31N 52°28' E 004°35'0 0.0
2016-Feb-03 22:31N 52°28' E 004°35'1 1.3
2016-Feb-03 21:33N 52°28' E 004°36'0 0.0
2016-Feb-03 20:30N 52°28' E 004°36'0 0.0
2016-Feb-03 19:33N 52°28' E 004°36'0 0.0
2016-Feb-03 18:33N 52°28' E 004°36'0 0.0
2016-Feb-03 17:33N 52°28' E 004°36'0 0.0
2016-Feb-03 16:30N 52°28' E 004°36'0 0.0
2016-Feb-03 15:33N 52°28' E 004°36'0 0.0
2016-Feb-03 14:30N 52°28' E 004°36'0 0.0
2016-Feb-03 13:33N 52°28' E 004°36'0 0.0
2016-Feb-03 12:33N 52°28' E 004°36'0 0.0
2016-Feb-03 11:30N 52°28' E 004°36'0 0.0
2016-Feb-03 10:33N 52°28' E 004°36'0 0.0
2016-Feb-03 09:33N 52°28' E 004°36'0 0.0
2016-Feb-03 08:33N 52°28' E 004°36'0 0.0
2016-Feb-03 07:30N 52°28' E 004°36'0 0.0
2016-Feb-03 06:33N 52°28' E 004°36'0 0.0
2016-Feb-03 05:33N 52°28' E 004°36'0 0.0
2016-Feb-03 04:30N 52°28' E 004°36'0 0.0
2016-Feb-03 03:30N 52°28' E 004°36'0 0.0
2016-Feb-03 02:33N 52°28' E 004°36'0 0.0
2016-Feb-03 01:33N 52°28' E 004°36'0 0.0
2016-Feb-03 00:33N 52°28' E 004°36'0 0.0
2016-Feb-02 23:33N 52°28' E 004°36'0 0.0
2016-Feb-02 22:33N 52°28' E 004°36'0 0.0
2016-Feb-02 21:33N 52°28' E 004°36'0 0.0
2016-Feb-02 20:33N 52°28' E 004°36'0 0.0
2016-Feb-02 19:33N 52°28' E 004°36'0 0.0
2016-Feb-02 18:33N 52°28' E 004°36'0 0.0
2016-Feb-02 17:33N 52°28' E 004°36'0 0.0
2016-Feb-02 16:30N 52°28' E 004°36'0 0.0
2016-Feb-02 15:33N 52°28' E 004°36'0 0.0
2016-Feb-02 14:33N 52°28' E 004°36'0 0.0
2016-Feb-02 13:33N 52°28' E 004°36'0 0.0
2016-Feb-02 12:33N 52°28' E 004°36'0 0.0
2016-Feb-02 11:33N 52°28' E 004°36'0 0.0
2016-Feb-02 10:33N 52°28' E 004°36'0 0.0
2016-Feb-02 09:33N 52°28' E 004°36'0 0.0
2016-Feb-02 08:33N 52°28' E 004°36'0 0.0
2016-Feb-02 07:30N 52°28' E 004°36'0 0.0
2016-Feb-02 06:33N 52°28' E 004°36'0 0.0
2016-Feb-02 05:33N 52°28' E 004°36'0 0.0
2016-Feb-02 04:33N 52°28' E 004°36'0 0.0
2016-Feb-02 03:30N 52°28' E 004°36'0 0.0
2016-Feb-02 02:33N 52°28' E 004°36'0 0.0
2016-Feb-02 01:33N 52°28' E 004°36'0 0.0
2016-Feb-02 00:33N 52°28' E 004°36'0 0.0
2016-Feb-01 23:33N 52°28' E 004°36'0 0.0
2016-Feb-01 22:33N 52°28' E 004°36'0 0.0
2016-Feb-01 21:33N 52°28' E 004°36'0 0.0
2016-Feb-01 20:30N 52°28' E 004°36'0 0.0
2016-Feb-01 19:33N 52°28' E 004°36'0 0.0
2016-Feb-01 18:33N 52°28' E 004°36'0 0.0
2016-Feb-01 17:33N 52°28' E 004°36'0 0.0
2016-Feb-01 16:33N 52°28' E 004°36'0 0.0
2016-Feb-01 15:30N 52°28' E 004°36'0 0.0
2016-Feb-01 14:30N 52°28' E 004°36'0 0.0
2016-Feb-01 13:33N 52°28' E 004°36'0 0.0
2016-Feb-01 12:33N 52°28' E 004°36'0 0.0
2016-Feb-01 11:33N 52°28' E 004°36'0 0.0
2016-Feb-01 10:33N 52°28' E 004°36'0 0.0
2016-Feb-01 09:33N 52°28' E 004°36'0 0.0
2016-Feb-01 08:33N 52°28' E 004°36'0 0.0
2016-Feb-01 07:33N 52°28' E 004°36'0 0.0
2016-Feb-01 06:33N 52°28' E 004°36'0 0.0
2016-Feb-01 05:33N 52°28' E 004°36'0 0.0
2016-Feb-01 04:33N 52°28' E 004°36'0 0.0
2016-Feb-01 03:30N 52°28' E 004°36'0 0.0
2016-Feb-01 02:33N 52°28' E 004°36'0 0.0
2016-Feb-01 01:33N 52°28' E 004°36'0 0.0
2016-Feb-01 00:33N 52°28' E 004°36'0 0.0
2016-Jan-31 23:30N 52°28' E 004°36'0 0.0
2016-Jan-31 22:33N 52°28' E 004°36'0 0.0
2016-Jan-31 21:30N 52°28' E 004°36'0 0.0
2016-Jan-31 20:33N 52°28' E 004°36'0 0.0
2016-Jan-31 19:33N 52°28' E 004°36'0 0.0
2016-Jan-31 18:33N 52°28' E 004°36'0 0.0
2016-Jan-31 17:33N 52°28' E 004°36'0 0.0
2016-Jan-31 16:33N 52°28' E 004°36'0 0.0
2016-Jan-31 15:33N 52°28' E 004°36'0 0.0
2016-Jan-31 14:33N 52°28' E 004°36'0 0.0
2016-Jan-31 13:30N 52°28' E 004°36'0 0.0
2016-Jan-31 12:33N 52°28' E 004°36'0 0.0
2016-Jan-31 11:33N 52°28' E 004°36'0 0.0
2016-Jan-31 10:33N 52°28' E 004°36'0 0.0
2016-Jan-31 09:30N 52°28' E 004°36'0 0.0
2016-Jan-31 08:33N 52°28' E 004°36'0 0.0
2016-Jan-31 07:33N 52°28' E 004°36'0 0.0
2016-Jan-31 06:33N 52°28' E 004°36'0 0.0
2016-Jan-31 05:33N 52°28' E 004°36'0 0.0
2016-Jan-31 04:33N 52°28' E 004°36'0 0.0
2016-Jan-31 03:33N 52°28' E 004°36'0 0.0
2016-Jan-31 02:30N 52°28' E 004°36'0 0.0
2016-Jan-31 01:33N 52°28' E 004°36'0 0.0
2016-Jan-31 00:33N 52°28' E 004°36'0 0.0
2016-Jan-30 23:33N 52°28' E 004°36'0 0.0
2016-Jan-30 22:33N 52°28' E 004°36'0 0.0
2016-Jan-30 21:33N 52°28' E 004°36'0 0.0
2016-Jan-30 20:33N 52°28' E 004°36'0 0.0
2016-Jan-30 19:33N 52°28' E 004°36'0 0.0
2016-Jan-30 17:33N 52°28' E 004°36'0 0.0
2016-Jan-30 16:30N 52°28' E 004°36'0 0.0
2016-Jan-30 15:30N 52°28' E 004°36'0 0.0
2016-Jan-30 14:33N 52°28' E 004°36'0 0.0
2016-Jan-30 13:33N 52°28' E 004°36'0 0.0
2016-Jan-30 12:27N 52°28' E 004°36'0 0.0
2016-Jan-30 11:33N 52°28' E 004°36'0 0.0
2016-Jan-30 10:33N 52°28' E 004°36'0 0.0
2016-Jan-30 09:33N 52°28' E 004°36'0 0.0
2016-Jan-30 08:33N 52°28' E 004°36'0 0.0
2016-Jan-30 07:33N 52°28' E 004°36'0 0.0
2016-Jan-30 06:33N 52°28' E 004°36'0 0.0
2016-Jan-30 05:33N 52°28' E 004°36'0 0.0
2016-Jan-30 04:33N 52°28' E 004°36'0 0.0
2016-Jan-30 03:33N 52°28' E 004°36'0 0.0
2016-Jan-30 02:33N 52°28' E 004°36'0 0.0
2016-Jan-30 01:30N 52°28' E 004°36'0 0.0
2016-Jan-30 00:33N 52°28' E 004°36'0 0.0
2016-Jan-29 23:33N 52°28' E 004°36'0 0.0
2016-Jan-29 22:33N 52°28' E 004°36'0 0.0
2016-Jan-29 21:33N 52°28' E 004°36'0 0.0
2016-Jan-29 20:33N 52°28' E 004°36'  
Track history (hours):
 
Tides and Currents Weather Stations Pressure Air Temp Water Temp Dewpoint Dewpoint Depression Visibility Wind Speed Wind Dir Waves Ship Positions

Hc Nadja Maria

Last reported at 2016-Feb-08 20:33 UTC. Time now 2016-Feb-08 21:21 UTC.
Position N 50°27' W 003°25'.

; draft 8.2 m.

Type: Ship. MMSI: 304204000.

Date/timePositionNaut miles runAvg speedWind from/ knotsBaromVisibWave heightAir tempDewpointWater temp
2016-Feb-08 20:33N 50°27' W 003°25'0 0.0
2016-Feb-08 19:33N 50°27' W 003°25'0 0.0
2016-Feb-08 18:33N 50°27' W 003°25'0 0.0
2016-Feb-08 17:33N 50°27' W 003°25'0 0.0
2016-Feb-08 16:33N 50°27' W 003°25'0 0.0
2016-Feb-08 15:33N 50°27' W 003°25'0 0.0
2016-Feb-08 14:33N 50°27' W 003°25'0 0.1
2016-Feb-08 13:33N 50°27' W 003°25'0 0.0
2016-Feb-08 12:33N 50°27' W 003°25'0 0.0
2016-Feb-08 11:33N 50°27' W 003°25'0 0.0
2016-Feb-08 10:33N 50°27' W 003°25'0 0.0
2016-Feb-08 09:33N 50°27' W 003°25'0 0.0
2016-Feb-08 08:33N 50°27' W 003°25'0 0.0
2016-Feb-08 07:33N 50°27' W 003°25'0 0.0
2016-Feb-08 06:33N 50°27' W 003°25'0 0.0
2016-Feb-08 05:33N 50°27' W 003°25'0 0.0
2016-Feb-08 04:33N 50°27' W 003°25'0 0.0
2016-Feb-08 03:33N 50°27' W 003°25'0 0.0
2016-Feb-08 02:33N 50°27' W 003°25'0 0.0
2016-Feb-08 01:33N 50°27' W 003°25'0 0.0
2016-Feb-08 00:33N 50°27' W 003°25'0 0.1
2016-Feb-07 23:33N 50°27' W 003°25'0 0.0
2016-Feb-07 22:33N 50°27' W 003°25'0 0.0
2016-Feb-07 21:33N 50°27' W 003°25'0 0.1
2016-Feb-07 20:33N 50°27' W 003°25'0 0.0
2016-Feb-07 19:33N 50°27' W 003°25'0 0.0
2016-Feb-07 18:33N 50°27' W 003°25'0 0.0
2016-Feb-07 17:33N 50°27' W 003°25'3 3.1
2016-Feb-07 16:33N 50°27' W 003°20'9 8.8
2016-Feb-07 15:33N 50°25' W 003°06'122 8.2
2016-Feb-07 00:33N 50°33' E 000°05'10 8.6
2016-Feb-06 23:23N 50°36' E 000°20'32 7.6
2016-Feb-06 19:08N 50°52' E 001°04'610.3
2016-Feb-06 18:33N 50°56' E 001°12'1111.3
2016-Feb-06 17:33N 51°03' E 001°25'1111.4
2016-Feb-06 16:33N 51°10' E 001°39'1010.0
2016-Feb-06 15:34N 51°19' E 001°48'9 9.1
2016-Feb-06 14:33N 51°27' E 001°54'9 8.7
2016-Feb-06 13:33N 51°33' E 002°04'8010.0
2016-Feb-06 05:33N 52°28' E 003°39'1010.1
2016-Feb-06 04:32N 52°31' E 003°55'9 9.4
2016-Feb-06 03:33N 52°32' E 004°10'7 7.5
2016-Feb-06 02:33N 52°30' E 004°22'8 8.1
2016-Feb-06 01:33N 52°28' E 004°35'0 0.1
2016-Feb-06 00:31N 52°28' E 004°35'0 0.0
2016-Feb-05 23:31N 52°28' E 004°35'0 0.0
2016-Feb-05 22:31N 52°28' E 004°35'0 0.0
2016-Feb-05 21:31N 52°28' E 004°35'0 0.0
2016-Feb-05 20:31N 52°28' E 004°35'0 0.0
2016-Feb-05 19:31N 52°28' E 004°35'0 0.0
2016-Feb-05 18:31N 52°28' E 004°35'0 0.0
2016-Feb-05 17:31N 52°28' E 004°35'0 0.0
2016-Feb-05 16:31N 52°28' E 004°35'0 0.0
2016-Feb-05 15:31N 52°28' E 004°35'0 0.0
2016-Feb-05 14:31N 52°28' E 004°35'0 0.0
2016-Feb-05 13:31N 52°28' E 004°35'0 0.0
2016-Feb-05 12:31N 52°28' E 004°35'0 0.0
2016-Feb-05 11:31N 52°28' E 004°35'0 0.0
2016-Feb-05 10:31N 52°28' E 004°35'0 0.0
2016-Feb-05 09:31N 52°28' E 004°35'0 0.0
2016-Feb-05 08:31N 52°28' E 004°35'0 0.0
2016-Feb-05 07:31N 52°28' E 004°35'0 0.0
2016-Feb-05 06:31N 52°28' E 004°35'0 0.0
2016-Feb-05 05:31N 52°28' E 004°35'0 0.0
2016-Feb-05 04:31N 52°28' E 004°35'0 0.0
2016-Feb-05 03:31N 52°28' E 004°35'0 0.0
2016-Feb-05 02:31N 52°28' E 004°35'0 0.0
2016-Feb-05 01:31N 52°28' E 004°35'0 0.0
2016-Feb-05 00:31N 52°28' E 004°35'0 0.0
2016-Feb-04 23:31N 52°28' E 004°35'0 0.0
2016-Feb-04 22:31N 52°28' E 004°35'0 0.0
2016-Feb-04 21:31N 52°28' E 004°35'0 0.0
2016-Feb-04 20:31N 52°28' E 004°35'0 0.0
2016-Feb-04 19:31N 52°28' E 004°35'0 0.0
2016-Feb-04 18:31N 52°28' E 004°35'0 0.0
2016-Feb-04 17:31N 52°28' E 004°35'0 0.0
2016-Feb-04 15:31N 52°28' E 004°35'0 0.0
2016-Feb-04 14:28N 52°28' E 004°35'0 0.0
2016-Feb-04 13:31N 52°28' E 004°35'0 0.0
2016-Feb-04 12:31N 52°28' E 004°35'0 0.0
2016-Feb-04 11:31N 52°28' E 004°35'0 0.0
2016-Feb-04 10:31N 52°28' E 004°35'0 0.0
2016-Feb-04 09:28N 52°28' E 004°35'0 0.0
2016-Feb-04 08:31N 52°28' E 004°35'0 0.0
2016-Feb-04 07:31N 52°28' E 004°35'0 0.0
2016-Feb-04 06:31N 52°28' E 004°35'0 0.0
2016-Feb-04 05:31N 52°28' E 004°35'0 0.0
2016-Feb-04 04:31N 52°28' E 004°35'0 0.0
2016-Feb-04 03:31N 52°28' E 004°35'0 0.0
2016-Feb-04 02:31N 52°28' E 004°35'0 0.0
2016-Feb-04 01:31N 52°28' E 004°35'0 0.0
2016-Feb-04 00:31N 52°28' E 004°35'0 0.0
2016-Feb-03 23:31N 52°28' E 004°35'0 0.0
2016-Feb-03 22:31N 52°28' E 004°35'1 1.3
2016-Feb-03 21:33N 52°28' E 004°36'0 0.0
2016-Feb-03 20:30N 52°28' E 004°36'0 0.0
2016-Feb-03 19:33N 52°28' E 004°36'0 0.0
2016-Feb-03 18:33N 52°28' E 004°36'0 0.0
2016-Feb-03 17:33N 52°28' E 004°36'0 0.0
2016-Feb-03 16:30N 52°28' E 004°36'0 0.0
2016-Feb-03 15:33N 52°28' E 004°36'0 0.0
2016-Feb-03 14:30N 52°28' E 004°36'0 0.0
2016-Feb-03 13:33N 52°28' E 004°36'0 0.0
2016-Feb-03 12:33N 52°28' E 004°36'0 0.0
2016-Feb-03 11:30N 52°28' E 004°36'0 0.0
2016-Feb-03 10:33N 52°28' E 004°36'0 0.0
2016-Feb-03 09:33N 52°28' E 004°36'0 0.0
2016-Feb-03 08:33N 52°28' E 004°36'0 0.0
2016-Feb-03 07:30N 52°28' E 004°36'0 0.0
2016-Feb-03 06:33N 52°28' E 004°36'0 0.0
2016-Feb-03 05:33N 52°28' E 004°36'0 0.0
2016-Feb-03 04:30N 52°28' E 004°36'0 0.0
2016-Feb-03 03:30N 52°28' E 004°36'0 0.0
2016-Feb-03 02:33N 52°28' E 004°36'0 0.0
2016-Feb-03 01:33N 52°28' E 004°36'0 0.0
2016-Feb-03 00:33N 52°28' E 004°36'0 0.0
2016-Feb-02 23:33N 52°28' E 004°36'0 0.0
2016-Feb-02 22:33N 52°28' E 004°36'0 0.0
2016-Feb-02 21:33N 52°28' E 004°36'0 0.0
2016-Feb-02 20:33N 52°28' E 004°36'0 0.0
2016-Feb-02 19:33N 52°28' E 004°36'0 0.0
2016-Feb-02 18:33N 52°28' E 004°36'0 0.0
2016-Feb-02 17:33N 52°28' E 004°36'0 0.0
2016-Feb-02 16:30N 52°28' E 004°36'0 0.0
2016-Feb-02 15:33N 52°28' E 004°36'0 0.0
2016-Feb-02 14:33N 52°28' E 004°36'0 0.0
2016-Feb-02 13:33N 52°28' E 004°36'0 0.0
2016-Feb-02 12:33N 52°28' E 004°36'0 0.0
2016-Feb-02 11:33N 52°28' E 004°36'0 0.0
2016-Feb-02 10:33N 52°28' E 004°36'0 0.0
2016-Feb-02 09:33N 52°28' E 004°36'0 0.0
2016-Feb-02 08:33N 52°28' E 004°36'0 0.0
2016-Feb-02 07:30N 52°28' E 004°36'0 0.0
2016-Feb-02 06:33N 52°28' E 004°36'0 0.0
2016-Feb-02 05:33N 52°28' E 004°36'0 0.0
2016-Feb-02 04:33N 52°28' E 004°36'0 0.0
2016-Feb-02 03:30N 52°28' E 004°36'0 0.0
2016-Feb-02 02:33N 52°28' E 004°36'0 0.0
2016-Feb-02 01:33N 52°28' E 004°36'0 0.0
2016-Feb-02 00:33N 52°28' E 004°36'0 0.0
2016-Feb-01 23:33N 52°28' E 004°36'0 0.0
2016-Feb-01 22:33N 52°28' E 004°36'0 0.0
2016-Feb-01 21:33N 52°28' E 004°36'0 0.0
2016-Feb-01 20:30N 52°28' E 004°36'0 0.0
2016-Feb-01 19:33N 52°28' E 004°36'0 0.0
2016-Feb-01 18:33N 52°28' E 004°36'0 0.0
2016-Feb-01 17:33N 52°28' E 004°36'0 0.0
2016-Feb-01 16:33N 52°28' E 004°36'0 0.0
2016-Feb-01 15:30N 52°28' E 004°36'0 0.0
2016-Feb-01 14:30N 52°28' E 004°36'0 0.0
2016-Feb-01 13:33N 52°28' E 004°36'0 0.0
2016-Feb-01 12:33N 52°28' E 004°36'0 0.0
2016-Feb-01 11:33N 52°28' E 004°36'0 0.0
2016-Feb-01 10:33N 52°28' E 004°36'0 0.0
2016-Feb-01 09:33N 52°28' E 004°36'0 0.0
2016-Feb-01 08:33N 52°28' E 004°36'0 0.0
2016-Feb-01 07:33N 52°28' E 004°36'0 0.0
2016-Feb-01 06:33N 52°28' E 004°36'0 0.0
2016-Feb-01 05:33N 52°28' E 004°36'0 0.0
2016-Feb-01 04:33N 52°28' E 004°36'0 0.0
2016-Feb-01 03:30N 52°28' E 004°36'0 0.0
2016-Feb-01 02:33N 52°28' E 004°36'0 0.0
2016-Feb-01 01:33N 52°28' E 004°36'0 0.0
2016-Feb-01 00:33N 52°28' E 004°36'0 0.0
2016-Jan-31 23:30N 52°28' E 004°36'0 0.0
2016-Jan-31 22:33N 52°28' E 004°36'0 0.0
2016-Jan-31 21:30N 52°28' E 004°36'0 0.0
2016-Jan-31 20:33N 52°28' E 004°36'0 0.0
2016-Jan-31 19:33N 52°28' E 004°36'0 0.0
2016-Jan-31 18:33N 52°28' E 004°36'0 0.0
2016-Jan-31 17:33N 52°28' E 004°36'0 0.0
2016-Jan-31 16:33N 52°28' E 004°36'0 0.0
2016-Jan-31 15:33N 52°28' E 004°36'0 0.0
2016-Jan-31 14:33N 52°28' E 004°36'0 0.0
2016-Jan-31 13:30N 52°28' E 004°36'0 0.0
2016-Jan-31 12:33N 52°28' E 004°36'0 0.0
2016-Jan-31 11:33N 52°28' E 004°36'0 0.0
2016-Jan-31 10:33N 52°28' E 004°36'0 0.0
2016-Jan-31 09:30N 52°28' E 004°36'0 0.0
2016-Jan-31 08:33N 52°28' E 004°36'0 0.0
2016-Jan-31 07:33N 52°28' E 004°36'0 0.0
2016-Jan-31 06:33N 52°28' E 004°36'0 0.0
2016-Jan-31 05:33N 52°28' E 004°36'0 0.0
2016-Jan-31 04:33N 52°28' E 004°36'0 0.0
2016-Jan-31 03:33N 52°28' E 004°36'0 0.0
2016-Jan-31 02:30N 52°28' E 004°36'0 0.0
2016-Jan-31 01:33N 52°28' E 004°36'0 0.0
2016-Jan-31 00:33N 52°28' E 004°36'0 0.0
2016-Jan-30 23:33N 52°28' E 004°36'0 0.0
2016-Jan-30 22:33N 52°28' E 004°36'0 0.0
2016-Jan-30 21:33N 52°28' E 004°36'0 0.0
2016-Jan-30 20:33N 52°28' E 004°36'0 0.0
2016-Jan-30 19:33N 52°28' E 004°36'0 0.0
2016-Jan-30 17:33N 52°28' E 004°36'0 0.0
2016-Jan-30 16:30N 52°28' E 004°36'0 0.0
2016-Jan-30 15:30N 52°28' E 004°36'0 0.0
2016-Jan-30 14:33N 52°28' E 004°36'0 0.0
2016-Jan-30 13:33N 52°28' E 004°36'0 0.0
2016-Jan-30 12:27N 52°28' E 004°36'0 0.0
2016-Jan-30 11:33N 52°28' E 004°36'0 0.0
2016-Jan-30 10:33N 52°28' E 004°36'0 0.0
2016-Jan-30 09:33N 52°28' E 004°36'0 0.0
2016-Jan-30 08:33N 52°28' E 004°36'0 0.0
2016-Jan-30 07:33N 52°28' E 004°36'0 0.0
2016-Jan-30 06:33N 52°28' E 004°36'0 0.0
2016-Jan-30 05:33N 52°28' E 004°36'0 0.0
2016-Jan-30 04:33N 52°28' E 004°36'0 0.0
2016-Jan-30 03:33N 52°28' E 004°36'0 0.0
2016-Jan-30 02:33N 52°28' E 004°36'0 0.0
2016-Jan-30 01:30N 52°28' E 004°36'0 0.0
2016-Jan-30 00:33N 52°28' E 004°36'0 0.0
2016-Jan-29 23:33N 52°28' E 004°36'0 0.0
2016-Jan-29 22:33N 52°28' E 004°36'0 0.0
2016-Jan-29 21:33N 52°28' E 004°36'0 0.0
2016-Jan-29 20:33N 52°28' E 004°36'  

Dump ship's entire track history